sensor_id;sensor_type;location;lat;lon;timestamp;P1;durP1;ratioP1;P2;durP2;ratioP2
27305;SDS011;14792;50.886;6.468;2023-03-23T00:01:24;1.82;;;1.47;;
27305;SDS011;14792;50.886;6.468;2023-03-23T00:04:26;3.10;;;1.70;;
27305;SDS011;14792;50.886;6.468;2023-03-23T00:07:27;6.62;;;2.10;;
27305;SDS011;14792;50.886;6.468;2023-03-23T00:10:29;3.60;;;1.87;;
27305;SDS011;14792;50.886;6.468;2023-03-23T00:13:30;3.47;;;1.70;;
27305;SDS011;14792;50.886;6.468;2023-03-23T00:16:32;6.65;;;1.77;;
27305;SDS011;14792;50.886;6.468;2023-03-23T00:19:34;3.17;;;1.40;;
27305;SDS011;14792;50.886;6.468;2023-03-23T00:22:35;3.90;;;1.60;;
27305;SDS011;14792;50.886;6.468;2023-03-23T00:25:37;2.95;;;1.70;;
27305;SDS011;14792;50.886;6.468;2023-03-23T00:28:38;2.77;;;1.60;;
27305;SDS011;14792;50.886;6.468;2023-03-23T00:31:40;4.20;;;1.80;;
27305;SDS011;14792;50.886;6.468;2023-03-23T00:34:42;3.62;;;1.80;;
27305;SDS011;14792;50.886;6.468;2023-03-23T00:37:43;3.62;;;1.52;;
27305;SDS011;14792;50.886;6.468;2023-03-23T00:40:45;3.67;;;1.87;;
27305;SDS011;14792;50.886;6.468;2023-03-23T00:43:46;3.20;;;2.08;;
27305;SDS011;14792;50.886;6.468;2023-03-23T00:46:48;2.77;;;1.82;;
27305;SDS011;14792;50.886;6.468;2023-03-23T00:49:52;4.15;;;1.70;;
27305;SDS011;14792;50.886;6.468;2023-03-23T00:52:57;4.40;;;1.60;;
27305;SDS011;14792;50.886;6.468;2023-03-23T00:55:58;3.87;;;1.77;;
27305;SDS011;14792;50.886;6.468;2023-03-23T00:59:00;3.65;;;1.80;;
27305;SDS011;14792;50.886;6.468;2023-03-23T01:02:01;2.83;;;1.60;;
27305;SDS011;14792;50.886;6.468;2023-03-23T01:05:03;2.87;;;1.77;;
27305;SDS011;14792;50.886;6.468;2023-03-23T01:08:05;3.80;;;2.08;;
27305;SDS011;14792;50.886;6.468;2023-03-23T01:11:06;3.40;;;2.05;;
27305;SDS011;14792;50.886;6.468;2023-03-23T01:14:08;2.65;;;1.60;;
27305;SDS011;14792;50.886;6.468;2023-03-23T01:17:10;3.95;;;1.60;;
27305;SDS011;14792;50.886;6.468;2023-03-23T01:20:12;7.42;;;2.60;;
27305;SDS011;14792;50.886;6.468;2023-03-23T01:23:13;6.40;;;2.20;;
27305;SDS011;14792;50.886;6.468;2023-03-23T01:26:16;4.03;;;2.10;;
27305;SDS011;14792;50.886;6.468;2023-03-23T01:29:17;5.28;;;2.15;;
27305;SDS011;14792;50.886;6.468;2023-03-23T01:32:18;4.97;;;2.30;;
27305;SDS011;14792;50.886;6.468;2023-03-23T01:35:20;4.28;;;2.17;;
27305;SDS011;14792;50.886;6.468;2023-03-23T01:38:21;5.10;;;2.30;;
27305;SDS011;14792;50.886;6.468;2023-03-23T01:41:23;2.30;;;2.00;;
27305;SDS011;14792;50.886;6.468;2023-03-23T01:47:32;4.35;;;2.08;;
27305;SDS011;14792;50.886;6.468;2023-03-23T01:50:36;3.52;;;1.72;;
27305;SDS011;14792;50.886;6.468;2023-03-23T01:53:40;3.80;;;1.95;;
27305;SDS011;14792;50.886;6.468;2023-03-23T01:56:41;2.25;;;1.60;;
27305;SDS011;14792;50.886;6.468;2023-03-23T01:59:42;2.98;;;1.90;;
27305;SDS011;14792;50.886;6.468;2023-03-23T02:02:44;2.85;;;1.65;;
27305;SDS011;14792;50.886;6.468;2023-03-23T02:05:45;2.33;;;1.10;;
27305;SDS011;14792;50.886;6.468;2023-03-23T02:08:47;2.33;;;1.27;;
27305;SDS011;14792;50.886;6.468;2023-03-23T02:11:48;2.95;;;1.40;;
27305;SDS011;14792;50.886;6.468;2023-03-23T02:14:50;2.75;;;1.50;;
27305;SDS011;14792;50.886;6.468;2023-03-23T02:34:26;5.60;;;1.22;;
27305;SDS011;14792;50.886;6.468;2023-03-23T02:37:39;2.15;;;1.02;;
27305;SDS011;14792;50.886;6.468;2023-03-23T02:40:40;1.87;;;1.35;;
27305;SDS011;14792;50.886;6.468;2023-03-23T02:43:42;2.90;;;1.10;;
27305;SDS011;14792;50.886;6.468;2023-03-23T02:46:42;1.37;;;1.10;;
27305;SDS011;14792;50.886;6.468;2023-03-23T02:49:44;2.02;;;1.10;;
27305;SDS011;14792;50.886;6.468;2023-03-23T02:52:45;2.65;;;1.17;;
27305;SDS011;14792;50.886;6.468;2023-03-23T02:55:47;3.30;;;1.07;;
27305;SDS011;14792;50.886;6.468;2023-03-23T02:58:49;2.20;;;1.30;;
27305;SDS011;14792;50.886;6.468;2023-03-23T03:02:38;2.45;;;1.07;;
27305;SDS011;14792;50.886;6.468;2023-03-23T03:05:01;2.35;;;1.20;;
27305;SDS011;14792;50.886;6.468;2023-03-23T03:11:17;2.37;;;1.40;;
27305;SDS011;14792;50.886;6.468;2023-03-23T03:14:25;2.12;;;1.20;;
27305;SDS011;14792;50.886;6.468;2023-03-23T03:17:26;1.62;;;1.22;;
27305;SDS011;14792;50.886;6.468;2023-03-23T03:20:28;1.40;;;1.10;;
27305;SDS011;14792;50.886;6.468;2023-03-23T03:23:29;2.58;;;1.37;;
27305;SDS011;14792;50.886;6.468;2023-03-23T03:26:31;2.90;;;1.10;;
27305;SDS011;14792;50.886;6.468;2023-03-23T03:29:33;2.85;;;1.80;;
27305;SDS011;14792;50.886;6.468;2023-03-23T03:32:36;1.95;;;1.50;;
27305;SDS011;14792;50.886;6.468;2023-03-23T03:35:36;1.55;;;1.22;;
27305;SDS011;14792;50.886;6.468;2023-03-23T03:38:41;3.70;;;1.62;;
27305;SDS011;14792;50.886;6.468;2023-03-23T03:45:29;2.83;;;2.02;;
27305;SDS011;14792;50.886;6.468;2023-03-23T03:48:31;2.62;;;1.50;;
27305;SDS011;14792;50.886;6.468;2023-03-23T03:51:32;3.85;;;1.82;;
27305;SDS011;14792;50.886;6.468;2023-03-23T03:54:34;3.70;;;1.80;;
27305;SDS011;14792;50.886;6.468;2023-03-23T03:57:35;3.75;;;1.95;;
27305;SDS011;14792;50.886;6.468;2023-03-23T04:00:37;2.83;;;1.98;;
27305;SDS011;14792;50.886;6.468;2023-03-23T04:03:39;3.70;;;1.90;;
27305;SDS011;14792;50.886;6.468;2023-03-23T04:06:41;4.05;;;1.87;;
27305;SDS011;14792;50.886;6.468;2023-03-23T04:09:43;5.30;;;1.52;;
27305;SDS011;14792;50.886;6.468;2023-03-23T04:12:44;2.37;;;1.70;;
27305;SDS011;14792;50.886;6.468;2023-03-23T04:15:46;3.12;;;1.60;;
27305;SDS011;14792;50.886;6.468;2023-03-23T04:18:47;3.42;;;1.70;;
27305;SDS011;14792;50.886;6.468;2023-03-23T04:21:49;2.40;;;1.70;;
27305;SDS011;14792;50.886;6.468;2023-03-23T04:24:50;3.05;;;1.80;;
27305;SDS011;14792;50.886;6.468;2023-03-23T04:27:52;7.62;;;1.85;;
27305;SDS011;14792;50.886;6.468;2023-03-23T04:30:53;2.85;;;2.08;;
27305;SDS011;14792;50.886;6.468;2023-03-23T04:33:55;3.85;;;2.20;;
27305;SDS011;14792;50.886;6.468;2023-03-23T04:36:57;3.42;;;1.60;;
27305;SDS011;14792;50.886;6.468;2023-03-23T04:39:58;2.72;;;1.60;;
27305;SDS011;14792;50.886;6.468;2023-03-23T04:43:02;4.62;;;2.02;;
27305;SDS011;14792;50.886;6.468;2023-03-23T04:46:04;3.10;;;1.80;;
27305;SDS011;14792;50.886;6.468;2023-03-23T04:49:05;3.33;;;2.10;;
27305;SDS011;14792;50.886;6.468;2023-03-23T04:52:07;3.05;;;1.98;;
27305;SDS011;14792;50.886;6.468;2023-03-23T04:55:09;4.50;;;2.27;;
27305;SDS011;14792;50.886;6.468;2023-03-23T04:58:10;3.45;;;2.02;;
27305;SDS011;14792;50.886;6.468;2023-03-23T05:01:12;3.20;;;2.22;;
27305;SDS011;14792;50.886;6.468;2023-03-23T05:04:13;4.55;;;2.37;;
27305;SDS011;14792;50.886;6.468;2023-03-23T05:07:15;3.05;;;1.85;;
27305;SDS011;14792;50.886;6.468;2023-03-23T05:10:17;3.98;;;2.20;;
27305;SDS011;14792;50.886;6.468;2023-03-23T05:13:18;3.15;;;1.82;;
27305;SDS011;14792;50.886;6.468;2023-03-23T05:16:20;5.45;;;2.22;;
27305;SDS011;14792;50.886;6.468;2023-03-23T05:19:21;4.05;;;2.05;;
27305;SDS011;14792;50.886;6.468;2023-03-23T05:22:23;4.28;;;1.85;;
27305;SDS011;14792;50.886;6.468;2023-03-23T05:25:24;2.83;;;1.90;;
27305;SDS011;14792;50.886;6.468;2023-03-23T05:28:26;5.65;;;2.33;;
27305;SDS011;14792;50.886;6.468;2023-03-23T05:31:28;3.67;;;2.00;;
27305;SDS011;14792;50.886;6.468;2023-03-23T05:34:29;3.65;;;1.67;;
27305;SDS011;14792;50.886;6.468;2023-03-23T05:37:31;4.70;;;2.65;;
27305;SDS011;14792;50.886;6.468;2023-03-23T05:40:32;6.08;;;2.00;;
27305;SDS011;14792;50.886;6.468;2023-03-23T05:43:34;5.58;;;1.90;;
27305;SDS011;14792;50.886;6.468;2023-03-23T05:46:36;3.65;;;1.80;;
27305;SDS011;14792;50.886;6.468;2023-03-23T05:49:37;8.18;;;2.70;;
27305;SDS011;14792;50.886;6.468;2023-03-23T05:52:39;3.77;;;1.90;;
27305;SDS011;14792;50.886;6.468;2023-03-23T05:55:41;4.05;;;2.27;;
27305;SDS011;14792;50.886;6.468;2023-03-23T05:58:42;5.47;;;2.47;;
27305;SDS011;14792;50.886;6.468;2023-03-23T06:01:44;10.10;;;2.15;;
27305;SDS011;14792;50.886;6.468;2023-03-23T06:04:45;7.37;;;2.33;;
27305;SDS011;14792;50.886;6.468;2023-03-23T06:07:47;9.15;;;2.10;;
27305;SDS011;14792;50.886;6.468;2023-03-23T06:10:49;5.70;;;2.15;;
27305;SDS011;14792;50.886;6.468;2023-03-23T06:13:50;6.25;;;2.20;;
27305;SDS011;14792;50.886;6.468;2023-03-23T06:16:52;5.62;;;2.33;;
27305;SDS011;14792;50.886;6.468;2023-03-23T06:19:53;8.08;;;2.02;;
27305;SDS011;14792;50.886;6.468;2023-03-23T06:22:55;4.33;;;1.57;;
27305;SDS011;14792;50.886;6.468;2023-03-23T06:25:57;3.45;;;1.80;;
27305;SDS011;14792;50.886;6.468;2023-03-23T06:28:58;6.97;;;1.70;;
27305;SDS011;14792;50.886;6.468;2023-03-23T06:32:00;4.95;;;1.90;;
27305;SDS011;14792;50.886;6.468;2023-03-23T06:35:01;5.05;;;2.08;;
27305;SDS011;14792;50.886;6.468;2023-03-23T06:38:03;4.55;;;1.50;;
27305;SDS011;14792;50.886;6.468;2023-03-23T06:41:05;3.70;;;1.67;;
27305;SDS011;14792;50.886;6.468;2023-03-23T06:44:06;9.13;;;2.00;;
27305;SDS011;14792;50.886;6.468;2023-03-23T06:47:08;4.55;;;1.57;;
27305;SDS011;14792;50.886;6.468;2023-03-23T06:50:09;5.10;;;1.60;;
27305;SDS011;14792;50.886;6.468;2023-03-23T06:53:11;7.53;;;1.92;;
27305;SDS011;14792;50.886;6.468;2023-03-23T06:56:12;2.75;;;1.52;;
27305;SDS011;14792;50.886;6.468;2023-03-23T06:59:14;4.05;;;1.30;;
27305;SDS011;14792;50.886;6.468;2023-03-23T07:02:16;3.80;;;1.37;;
27305;SDS011;14792;50.886;6.468;2023-03-23T07:05:17;6.30;;;1.60;;
27305;SDS011;14792;50.886;6.468;2023-03-23T07:08:19;3.15;;;1.60;;
27305;SDS011;14792;50.886;6.468;2023-03-23T07:11:20;5.22;;;1.40;;
27305;SDS011;14792;50.886;6.468;2023-03-23T07:14:22;5.00;;;1.40;;
27305;SDS011;14792;50.886;6.468;2023-03-23T07:17:24;4.25;;;1.60;;
27305;SDS011;14792;50.886;6.468;2023-03-23T07:20:25;4.97;;;1.37;;
27305;SDS011;14792;50.886;6.468;2023-03-23T07:23:28;4.47;;;1.50;;
27305;SDS011;14792;50.886;6.468;2023-03-23T07:26:28;4.35;;;1.10;;
27305;SDS011;14792;50.886;6.468;2023-03-23T07:29:30;5.15;;;1.50;;
27305;SDS011;14792;50.886;6.468;2023-03-23T07:32:32;3.50;;;1.40;;
27305;SDS011;14792;50.886;6.468;2023-03-23T07:35:33;4.15;;;1.50;;
27305;SDS011;14792;50.886;6.468;2023-03-23T07:38:35;4.50;;;1.47;;
27305;SDS011;14792;50.886;6.468;2023-03-23T07:41:36;4.35;;;1.65;;
27305;SDS011;14792;50.886;6.468;2023-03-23T07:44:38;4.62;;;1.25;;
27305;SDS011;14792;50.886;6.468;2023-03-23T07:47:39;6.53;;;1.77;;
27305;SDS011;14792;50.886;6.468;2023-03-23T07:50:41;6.28;;;1.90;;
27305;SDS011;14792;50.886;6.468;2023-03-23T07:53:43;5.10;;;1.62;;
27305;SDS011;14792;50.886;6.468;2023-03-23T07:56:44;5.47;;;1.72;;
27305;SDS011;14792;50.886;6.468;2023-03-23T07:59:46;5.45;;;1.87;;
27305;SDS011;14792;50.886;6.468;2023-03-23T08:02:48;5.37;;;1.70;;
27305;SDS011;14792;50.886;6.468;2023-03-23T08:05:49;9.58;;;1.65;;
27305;SDS011;14792;50.886;6.468;2023-03-23T08:08:51;7.03;;;1.57;;
27305;SDS011;14792;50.886;6.468;2023-03-23T08:11:52;9.25;;;1.77;;
27305;SDS011;14792;50.886;6.468;2023-03-23T08:14:54;4.47;;;1.62;;
27305;SDS011;14792;50.886;6.468;2023-03-23T08:17:55;3.22;;;1.82;;
27305;SDS011;14792;50.886;6.468;2023-03-23T08:20:57;7.20;;;2.08;;
27305;SDS011;14792;50.886;6.468;2023-03-23T08:23:59;4.45;;;2.12;;
27305;SDS011;14792;50.886;6.468;2023-03-23T08:27:00;7.95;;;3.87;;
27305;SDS011;14792;50.886;6.468;2023-03-23T08:30:03;4.72;;;1.85;;
27305;SDS011;14792;50.886;6.468;2023-03-23T08:33:04;6.72;;;1.50;;
27305;SDS011;14792;50.886;6.468;2023-03-23T08:36:05;8.33;;;2.17;;
27305;SDS011;14792;50.886;6.468;2023-03-23T08:39:07;4.90;;;1.50;;
27305;SDS011;14792;50.886;6.468;2023-03-23T08:42:09;14.98;;;1.65;;
27305;SDS011;14792;50.886;6.468;2023-03-23T08:45:11;5.40;;;1.30;;
27305;SDS011;14792;50.886;6.468;2023-03-23T08:48:12;5.72;;;1.62;;
27305;SDS011;14792;50.886;6.468;2023-03-23T08:51:13;5.28;;;1.60;;
27305;SDS011;14792;50.886;6.468;2023-03-23T08:54:15;5.97;;;1.75;;
27305;SDS011;14792;50.886;6.468;2023-03-23T08:57:17;3.52;;;1.30;;
27305;SDS011;14792;50.886;6.468;2023-03-23T09:00:19;4.65;;;1.62;;
27305;SDS011;14792;50.886;6.468;2023-03-23T09:03:20;6.40;;;1.40;;
27305;SDS011;14792;50.886;6.468;2023-03-23T09:06:22;8.50;;;1.42;;
27305;SDS011;14792;50.886;6.468;2023-03-23T09:09:24;5.35;;;1.67;;
27305;SDS011;14792;50.886;6.468;2023-03-23T09:12:25;6.80;;;1.70;;
27305;SDS011;14792;50.886;6.468;2023-03-23T09:15:27;9.45;;;1.90;;
27305;SDS011;14792;50.886;6.468;2023-03-23T09:18:29;6.78;;;1.60;;
27305;SDS011;14792;50.886;6.468;2023-03-23T09:21:30;6.83;;;1.70;;
27305;SDS011;14792;50.886;6.468;2023-03-23T09:24:32;9.10;;;1.90;;
27305;SDS011;14792;50.886;6.468;2023-03-23T09:27:34;7.72;;;1.52;;
27305;SDS011;14792;50.886;6.468;2023-03-23T09:30:36;4.95;;;1.35;;
27305;SDS011;14792;50.886;6.468;2023-03-23T09:33:38;4.33;;;1.55;;
27305;SDS011;14792;50.886;6.468;2023-03-23T09:36:39;7.37;;;1.92;;
27305;SDS011;14792;50.886;6.468;2023-03-23T09:39:40;3.27;;;1.22;;
27305;SDS011;14792;50.886;6.468;2023-03-23T09:42:55;5.33;;;1.55;;
27305;SDS011;14792;50.886;6.468;2023-03-23T09:52:32;7.33;;;1.50;;
27305;SDS011;14792;50.886;6.468;2023-03-23T09:55:28;4.20;;;1.22;;
27305;SDS011;14792;50.886;6.468;2023-03-23T09:58:31;10.60;;;1.57;;
27305;SDS011;14792;50.886;6.468;2023-03-23T10:01:39;4.97;;;1.17;;
27305;SDS011;14792;50.886;6.468;2023-03-23T10:04:54;5.03;;;1.27;;
27305;SDS011;14792;50.886;6.468;2023-03-23T10:07:55;6.62;;;1.27;;
27305;SDS011;14792;50.886;6.468;2023-03-23T10:14:09;2.15;;;0.80;;
27305;SDS011;14792;50.886;6.468;2023-03-23T10:17:15;2.92;;;0.90;;
27305;SDS011;14792;50.886;6.468;2023-03-23T10:20:28;5.20;;;1.02;;
27305;SDS011;14792;50.886;6.468;2023-03-23T10:30:43;2.45;;;0.80;;
27305;SDS011;14792;50.886;6.468;2023-03-23T10:33:33;1.92;;;0.80;;
27305;SDS011;14792;50.886;6.468;2023-03-23T10:36:40;1.72;;;0.90;;
27305;SDS011;14792;50.886;6.468;2023-03-23T10:39:51;1.15;;;0.80;;
27305;SDS011;14792;50.886;6.468;2023-03-23T10:42:51;3.35;;;1.10;;
27305;SDS011;14792;50.886;6.468;2023-03-23T10:46:05;4.72;;;1.32;;
27305;SDS011;14792;50.886;6.468;2023-03-23T10:49:06;3.55;;;0.80;;
27305;SDS011;14792;50.886;6.468;2023-03-23T10:55:20;2.40;;;1.10;;
27305;SDS011;14792;50.886;6.468;2023-03-23T10:58:25;2.58;;;1.15;;
27305;SDS011;14792;50.886;6.468;2023-03-23T11:01:32;2.50;;;1.05;;
27305;SDS011;14792;50.886;6.468;2023-03-23T11:04:29;5.80;;;1.05;;
27305;SDS011;14792;50.886;6.468;2023-03-23T11:07:34;3.45;;;1.20;;
27305;SDS011;14792;50.886;6.468;2023-03-23T11:10:47;4.75;;;1.30;;
27305;SDS011;14792;50.886;6.468;2023-03-23T11:13:43;2.65;;;1.05;;
27305;SDS011;14792;50.886;6.468;2023-03-23T11:16:46;2.02;;;1.00;;
27305;SDS011;14792;50.886;6.468;2023-03-23T11:19:47;4.17;;;0.93;;
27305;SDS011;14792;50.886;6.468;2023-03-23T11:22:49;6.30;;;1.25;;
27305;SDS011;14792;50.886;6.468;2023-03-23T11:25:53;3.40;;;1.15;;
27305;SDS011;14792;50.886;6.468;2023-03-23T11:28:59;2.37;;;0.90;;
27305;SDS011;14792;50.886;6.468;2023-03-23T11:35:05;1.27;;;0.80;;
27305;SDS011;14792;50.886;6.468;2023-03-23T11:38:03;1.70;;;0.53;;
27305;SDS011;14792;50.886;6.468;2023-03-23T11:41:08;1.42;;;0.62;;
27305;SDS011;14792;50.886;6.468;2023-03-23T11:44:09;0.75;;;0.53;;
27305;SDS011;14792;50.886;6.468;2023-03-23T11:47:30;2.70;;;1.00;;
27305;SDS011;14792;50.886;6.468;2023-03-23T11:50:48;3.05;;;0.80;;
27305;SDS011;14792;50.886;6.468;2023-03-23T11:56:51;2.37;;;1.22;;
27305;SDS011;14792;50.886;6.468;2023-03-23T11:59:52;4.70;;;1.27;;
27305;SDS011;14792;50.886;6.468;2023-03-23T12:03:05;3.52;;;1.00;;
27305;SDS011;14792;50.886;6.468;2023-03-23T12:06:10;2.17;;;0.80;;
27305;SDS011;14792;50.886;6.468;2023-03-23T12:18:58;4.03;;;1.40;;
27305;SDS011;14792;50.886;6.468;2023-03-23T12:28:36;5.28;;;0.98;;
27305;SDS011;14792;50.886;6.468;2023-03-23T12:34:58;4.25;;;1.32;;
27305;SDS011;14792;50.886;6.468;2023-03-23T12:41:17;3.35;;;1.20;;
27305;SDS011;14792;50.886;6.468;2023-03-23T12:44:20;1.90;;;0.78;;
27305;SDS011;14792;50.886;6.468;2023-03-23T12:50:40;3.47;;;0.95;;
27305;SDS011;14792;50.886;6.468;2023-03-23T13:00:22;4.22;;;1.27;;
27305;SDS011;14792;50.886;6.468;2023-03-23T13:06:49;5.05;;;1.30;;
27305;SDS011;14792;50.886;6.468;2023-03-23T13:09:53;4.50;;;1.30;;
27305;SDS011;14792;50.886;6.468;2023-03-23T13:12:52;3.83;;;1.10;;
27305;SDS011;14792;50.886;6.468;2023-03-23T13:19:17;7.30;;;1.32;;
27305;SDS011;14792;50.886;6.468;2023-03-23T13:22:22;3.42;;;1.07;;
27305;SDS011;14792;50.886;6.468;2023-03-23T13:25:30;3.27;;;1.40;;
27305;SDS011;14792;50.886;6.468;2023-03-23T13:28:34;6.55;;;1.52;;
27305;SDS011;14792;50.886;6.468;2023-03-23T13:31:37;3.33;;;1.02;;
27305;SDS011;14792;50.886;6.468;2023-03-23T13:34:39;3.05;;;1.20;;
27305;SDS011;14792;50.886;6.468;2023-03-23T13:37:46;3.05;;;1.40;;
27305;SDS011;14792;50.886;6.468;2023-03-23T13:40:47;4.50;;;1.60;;
27305;SDS011;14792;50.886;6.468;2023-03-23T13:43:49;7.72;;;1.60;;
27305;SDS011;14792;50.886;6.468;2023-03-23T13:46:54;2.98;;;1.50;;
27305;SDS011;14792;50.886;6.468;2023-03-23T13:53:01;5.17;;;1.55;;
27305;SDS011;14792;50.886;6.468;2023-03-23T13:59:34;10.28;;;1.80;;
27305;SDS011;14792;50.886;6.468;2023-03-23T14:02:38;8.83;;;2.00;;
27305;SDS011;14792;50.886;6.468;2023-03-23T14:08:51;9.63;;;1.90;;
27305;SDS011;14792;50.886;6.468;2023-03-23T14:11:55;7.95;;;2.02;;
27305;SDS011;14792;50.886;6.468;2023-03-23T14:15:05;5.78;;;1.75;;
27305;SDS011;14792;50.886;6.468;2023-03-23T14:18:11;7.90;;;2.12;;
27305;SDS011;14792;50.886;6.468;2023-03-23T14:21:16;5.65;;;2.02;;
27305;SDS011;14792;50.886;6.468;2023-03-23T14:24:39;5.70;;;1.67;;
27305;SDS011;14792;50.886;6.468;2023-03-23T14:27:22;5.03;;;1.45;;
27305;SDS011;14792;50.886;6.468;2023-03-23T14:30:24;4.50;;;1.30;;
27305;SDS011;14792;50.886;6.468;2023-03-23T14:33:25;6.20;;;1.50;;
27305;SDS011;14792;50.886;6.468;2023-03-23T14:36:28;4.67;;;1.47;;
27305;SDS011;14792;50.886;6.468;2023-03-23T14:39:31;3.90;;;1.37;;
27305;SDS011;14792;50.886;6.468;2023-03-23T14:42:34;5.85;;;1.67;;
27305;SDS011;14792;50.886;6.468;2023-03-23T14:45:35;4.33;;;1.57;;
27305;SDS011;14792;50.886;6.468;2023-03-23T14:48:37;8.43;;;1.80;;
27305;SDS011;14792;50.886;6.468;2023-03-23T14:51:46;4.90;;;1.82;;
27305;SDS011;14792;50.886;6.468;2023-03-23T14:54:39;4.28;;;1.60;;
27305;SDS011;14792;50.886;6.468;2023-03-23T14:57:41;6.37;;;2.00;;
27305;SDS011;14792;50.886;6.468;2023-03-23T15:00:48;3.67;;;1.40;;
27305;SDS011;14792;50.886;6.468;2023-03-23T15:04:02;7.05;;;2.15;;
27305;SDS011;14792;50.886;6.468;2023-03-23T15:07:06;5.20;;;1.55;;
27305;SDS011;14792;50.886;6.468;2023-03-23T15:10:08;5.17;;;1.55;;
27305;SDS011;14792;50.886;6.468;2023-03-23T15:13:11;3.85;;;1.72;;
27305;SDS011;14792;50.886;6.468;2023-03-23T15:16:24;5.50;;;1.60;;
27305;SDS011;14792;50.886;6.468;2023-03-23T15:19:19;6.65;;;1.80;;
27305;SDS011;14792;50.886;6.468;2023-03-23T15:22:28;7.62;;;1.87;;
27305;SDS011;14792;50.886;6.468;2023-03-23T15:25:30;4.67;;;1.40;;
27305;SDS011;14792;50.886;6.468;2023-03-23T15:28:32;6.03;;;1.85;;
27305;SDS011;14792;50.886;6.468;2023-03-23T15:31:38;6.17;;;1.75;;
27305;SDS011;14792;50.886;6.468;2023-03-23T15:34:36;5.12;;;1.50;;
27305;SDS011;14792;50.886;6.468;2023-03-23T15:37:39;4.75;;;1.60;;
27305;SDS011;14792;50.886;6.468;2023-03-23T15:40:39;6.55;;;1.60;;
27305;SDS011;14792;50.886;6.468;2023-03-23T15:43:51;3.60;;;1.47;;
27305;SDS011;14792;50.886;6.468;2023-03-23T15:46:52;6.62;;;2.00;;
27305;SDS011;14792;50.886;6.468;2023-03-23T15:50:01;7.70;;;2.08;;
27305;SDS011;14792;50.886;6.468;2023-03-23T15:53:00;6.10;;;1.52;;
27305;SDS011;14792;50.886;6.468;2023-03-23T15:56:02;4.83;;;1.55;;
27305;SDS011;14792;50.886;6.468;2023-03-23T15:59:03;6.22;;;1.75;;
27305;SDS011;14792;50.886;6.468;2023-03-23T16:02:04;5.85;;;1.70;;
27305;SDS011;14792;50.886;6.468;2023-03-23T16:05:06;4.83;;;1.90;;
27305;SDS011;14792;50.886;6.468;2023-03-23T16:08:09;5.03;;;1.50;;
27305;SDS011;14792;50.886;6.468;2023-03-23T16:11:12;6.15;;;1.67;;
27305;SDS011;14792;50.886;6.468;2023-03-23T16:14:14;6.05;;;1.98;;
27305;SDS011;14792;50.886;6.468;2023-03-23T16:17:16;5.65;;;1.80;;
27305;SDS011;14792;50.886;6.468;2023-03-23T16:20:18;8.83;;;1.95;;
27305;SDS011;14792;50.886;6.468;2023-03-23T16:23:19;6.37;;;1.62;;
27305;SDS011;14792;50.886;6.468;2023-03-23T16:26:21;7.45;;;1.85;;
27305;SDS011;14792;50.886;6.468;2023-03-23T16:29:23;6.70;;;1.65;;
27305;SDS011;14792;50.886;6.468;2023-03-23T16:32:25;6.97;;;2.30;;
27305;SDS011;14792;50.886;6.468;2023-03-23T16:35:27;7.42;;;1.62;;
27305;SDS011;14792;50.886;6.468;2023-03-23T16:38:28;5.08;;;2.05;;
27305;SDS011;14792;50.886;6.468;2023-03-23T16:41:30;5.53;;;1.60;;
27305;SDS011;14792;50.886;6.468;2023-03-23T16:44:31;11.90;;;2.25;;
27305;SDS011;14792;50.886;6.468;2023-03-23T16:47:33;7.17;;;2.22;;
27305;SDS011;14792;50.886;6.468;2023-03-23T16:50:35;5.20;;;1.98;;
27305;SDS011;14792;50.886;6.468;2023-03-23T16:53:36;6.67;;;2.10;;
27305;SDS011;14792;50.886;6.468;2023-03-23T16:56:38;7.80;;;2.05;;
27305;SDS011;14792;50.886;6.468;2023-03-23T16:59:40;3.20;;;1.25;;
27305;SDS011;14792;50.886;6.468;2023-03-23T17:02:41;5.95;;;1.90;;
27305;SDS011;14792;50.886;6.468;2023-03-23T17:05:43;7.03;;;1.80;;
27305;SDS011;14792;50.886;6.468;2023-03-23T17:08:45;7.15;;;1.90;;
27305;SDS011;14792;50.886;6.468;2023-03-23T17:11:46;5.67;;;1.70;;
27305;SDS011;14792;50.886;6.468;2023-03-23T17:14:48;6.97;;;2.02;;
27305;SDS011;14792;50.886;6.468;2023-03-23T17:17:50;4.75;;;1.98;;
27305;SDS011;14792;50.886;6.468;2023-03-23T17:20:52;5.58;;;2.02;;
27305;SDS011;14792;50.886;6.468;2023-03-23T17:23:53;9.00;;;2.17;;
27305;SDS011;14792;50.886;6.468;2023-03-23T17:26:54;9.58;;;2.45;;
27305;SDS011;14792;50.886;6.468;2023-03-23T17:29:56;8.30;;;2.45;;
27305;SDS011;14792;50.886;6.468;2023-03-23T17:32:57;8.70;;;2.25;;
27305;SDS011;14792;50.886;6.468;2023-03-23T17:35:59;7.95;;;2.12;;
27305;SDS011;14792;50.886;6.468;2023-03-23T17:39:01;6.95;;;1.90;;
27305;SDS011;14792;50.886;6.468;2023-03-23T17:42:02;5.50;;;2.30;;
27305;SDS011;14792;50.886;6.468;2023-03-23T17:45:04;11.05;;;2.20;;
27305;SDS011;14792;50.886;6.468;2023-03-23T17:48:05;9.63;;;2.20;;
27305;SDS011;14792;50.886;6.468;2023-03-23T17:51:07;8.33;;;2.35;;
27305;SDS011;14792;50.886;6.468;2023-03-23T17:54:09;6.70;;;2.27;;
27305;SDS011;14792;50.886;6.468;2023-03-23T17:57:10;10.75;;;2.08;;
27305;SDS011;14792;50.886;6.468;2023-03-23T18:00:13;6.55;;;2.12;;
27305;SDS011;14792;50.886;6.468;2023-03-23T18:03:14;8.95;;;2.65;;
27305;SDS011;14792;50.886;6.468;2023-03-23T18:06:16;7.35;;;2.35;;
27305;SDS011;14792;50.886;6.468;2023-03-23T18:09:17;7.15;;;2.70;;
27305;SDS011;14792;50.886;6.468;2023-03-23T18:12:19;9.38;;;2.60;;
27305;SDS011;14792;50.886;6.468;2023-03-23T18:15:21;9.63;;;2.25;;
27305;SDS011;14792;50.886;6.468;2023-03-23T18:18:23;7.33;;;2.50;;
27305;SDS011;14792;50.886;6.468;2023-03-23T18:21:24;5.80;;;2.35;;
27305;SDS011;14792;50.886;6.468;2023-03-23T18:24:26;9.05;;;2.42;;
27305;SDS011;14792;50.886;6.468;2023-03-23T18:27:27;10.70;;;2.70;;
27305;SDS011;14792;50.886;6.468;2023-03-23T18:30:29;8.98;;;2.77;;
27305;SDS011;14792;50.886;6.468;2023-03-23T18:36:32;9.80;;;2.70;;
27305;SDS011;14792;50.886;6.468;2023-03-23T18:39:34;6.75;;;2.33;;
27305;SDS011;14792;50.886;6.468;2023-03-23T18:42:36;6.75;;;2.60;;
27305;SDS011;14792;50.886;6.468;2023-03-23T18:45:37;6.50;;;2.50;;
27305;SDS011;14792;50.886;6.468;2023-03-23T18:48:38;8.15;;;2.55;;
27305;SDS011;14792;50.886;6.468;2023-03-23T18:51:40;6.87;;;2.70;;
27305;SDS011;14792;50.886;6.468;2023-03-23T18:54:42;5.42;;;2.37;;
27305;SDS011;14792;50.886;6.468;2023-03-23T18:57:43;6.67;;;2.15;;
27305;SDS011;14792;50.886;6.468;2023-03-23T19:00:45;7.00;;;2.10;;
27305;SDS011;14792;50.886;6.468;2023-03-23T19:03:46;8.95;;;2.00;;
27305;SDS011;14792;50.886;6.468;2023-03-23T19:06:48;9.80;;;2.62;;
27305;SDS011;14792;50.886;6.468;2023-03-23T19:09:49;7.10;;;2.95;;
27305;SDS011;14792;50.886;6.468;2023-03-23T19:12:51;6.72;;;2.62;;
27305;SDS011;14792;50.886;6.468;2023-03-23T19:15:53;8.45;;;2.55;;
27305;SDS011;14792;50.886;6.468;2023-03-23T19:18:54;9.93;;;2.72;;
27305;SDS011;14792;50.886;6.468;2023-03-23T19:21:56;9.18;;;2.50;;
27305;SDS011;14792;50.886;6.468;2023-03-23T19:24:58;7.37;;;2.87;;
27305;SDS011;14792;50.886;6.468;2023-03-23T19:27:59;8.65;;;2.98;;
27305;SDS011;14792;50.886;6.468;2023-03-23T19:31:01;11.00;;;3.30;;
27305;SDS011;14792;50.886;6.468;2023-03-23T19:34:02;7.50;;;2.70;;
27305;SDS011;14792;50.886;6.468;2023-03-23T19:37:04;13.62;;;4.03;;
27305;SDS011;14792;50.886;6.468;2023-03-23T19:40:06;5.03;;;2.35;;
27305;SDS011;14792;50.886;6.468;2023-03-23T19:43:07;8.63;;;2.80;;
27305;SDS011;14792;50.886;6.468;2023-03-23T19:46:09;9.78;;;2.77;;
27305;SDS011;14792;50.886;6.468;2023-03-23T19:49:11;9.20;;;2.83;;
27305;SDS011;14792;50.886;6.468;2023-03-23T19:52:12;9.05;;;2.90;;
27305;SDS011;14792;50.886;6.468;2023-03-23T19:55:14;7.53;;;2.90;;
27305;SDS011;14792;50.886;6.468;2023-03-23T19:58:15;9.45;;;3.02;;
27305;SDS011;14792;50.886;6.468;2023-03-23T20:01:17;9.33;;;2.55;;
27305;SDS011;14792;50.886;6.468;2023-03-23T20:04:19;7.70;;;2.40;;